Annette, Alaska
Current Conditions -  °F | °C
As of 1:53 PM on Friday 24 Oct 2014 (Local Time) from PANT Reporting Station
Light Rain Light Rain  
Wind Chill: 43°   Ceiling: 3500
Heat Index: 47°   Visibility: 8mi
Dew Point: 44°   Wind: 8mph
Humidity: 90%   Direction: 110°ESE
Pressure: 29.87"   Gusts: NA
Location:  55.05°N, 131.6°W
Report Text: PANT 242253Z 11007KT 8SM -RA FEW026 OVC035 08/07 A2987 RMK AO2 RAB02 SLP117 P0005 T00830067
Loading
Personal Weather Stations






























Interactive Weather Map
Tropical Storm Tracking
New forecast layout! Learn more

10-Day Weather Forecast

Advertisements
Track Severe Weather on mobile